首页
METAR-TAF:

METAR-TAF

机场 :

克拉約瓦, 罗马尼亚

纬度: 44-14N, 经度: 023-52E, 海拔: 192米

当前天气观测

该预报发布于28分钟前的14:30 UTC
风速7节,风向西转西北,在西北转西北之间变化
温度 22°C
湿度 43%
气压 1009 hPa
能见度10公里或以上
1500米以下无云,无积雨云

METAR: LRCV 011430Z 30007KT 270V330 CAVOK 22/09 Q1009

时间: 17:58 (14:58 UTC)

预报

该预报发布于58分钟前的14:00 UTC
预报有效从01日的 15点(UTC)到 02日的 00点(UTC)
风速8节,风向西
能见度10公里或以上
1500米以下无云,无积雨云
短暂存在
从 01日的 15点(UTC)到 01日的 22点(UTC)
散云层高于4000英尺, 积雨云.
几率 40% :
短暂存在
从 01日的 17点(UTC)到 01日的 21点(UTC)
能見度: 5000
散云层高于1500英尺
散云层高于3500英尺, 积雨云.
雷暴, 小雨

TAF: LRCV 011400Z 0115/0200 27008KT CAVOK TEMPO 0115/0122 SCT040CB PROB40 TEMPO 0117/0121 5000 -TSRA SCT015 SCT035CB

超过4000个机场的气象观测和天气预报(METAR&TAF报告)。

可查询的气象台以黄色和红色小点在地图上表示。

将鼠标移到小点上方,可查看气象台名称。

然后点击查看天气观测和预报。

如需切换地图:点击带黑十字的绿色按钮放大地图;点击带横线的绿色按钮缩小地图;或者点击绿色箭头查看邻近地区的地图。


METAR-TAF: